createdAt,value
2023-03-01T06:43:09.292Z,4.69
2023-03-01T06:45:56.901Z,4.69
2023-03-01T06:48:42.890Z,4.12
2023-03-01T06:51:28.533Z,4.15
2023-03-01T06:54:15.573Z,4.18
2023-03-01T06:57:00.681Z,4.12
2023-03-01T06:59:45.926Z,4.19
2023-03-01T07:02:31.566Z,4.24
2023-03-01T07:05:17.167Z,4.23
2023-03-01T07:08:03.136Z,4.24
2023-03-01T07:10:48.224Z,4.27
2023-03-01T07:13:33.831Z,4.29
2023-03-01T07:16:20.130Z,4.28
2023-03-01T07:19:06.460Z,4.27
2023-03-01T07:21:51.904Z,4.24
2023-03-01T07:24:37.266Z,4.30
2023-03-01T07:27:22.608Z,4.34
2023-03-01T07:30:08.730Z,4.29
2023-03-01T07:32:55.749Z,4.36
2023-03-01T07:35:41.245Z,4.36
2023-03-01T07:38:27.260Z,4.43
2023-03-01T07:41:12.709Z,4.40
2023-03-01T07:43:58.251Z,4.44
2023-03-01T07:46:45.672Z,4.46
2023-03-01T07:49:30.778Z,4.53
2023-03-01T07:52:16.095Z,4.51
2023-03-01T07:55:02.001Z,4.51
2023-03-01T07:57:47.091Z,4.58
2023-03-01T08:00:32.727Z,4.56
2023-03-01T08:03:18.205Z,4.55
2023-03-01T08:06:06.219Z,4.59
2023-03-01T08:08:51.417Z,4.56
2023-03-01T08:11:36.846Z,4.53
2023-03-01T08:14:22.305Z,4.42
2023-03-01T08:17:07.793Z,4.59
2023-03-01T08:19:53.398Z,4.67
2023-03-01T08:22:38.350Z,4.65
2023-03-01T08:25:24.014Z,4.64
2023-03-01T08:28:09.550Z,4.64
2023-03-01T08:30:54.667Z,4.78
2023-03-01T08:33:42.557Z,4.83
2023-03-01T08:36:30.446Z,4.91
2023-03-01T08:39:20.300Z,4.96
2023-03-01T08:42:05.950Z,5.06
2023-03-01T08:44:52.122Z,5.03
2023-03-01T08:47:38.292Z,5.10
2023-03-01T08:50:25.540Z,5.05
2023-03-01T08:53:11.341Z,5.02
2023-03-01T08:56:01.565Z,5.01
2023-03-01T08:58:48.400Z,5.09
2023-03-01T09:01:35.880Z,5.17
2023-03-01T09:04:22.345Z,5.04
2023-03-01T09:07:08.311Z,5.08
2023-03-01T09:09:56.287Z,5.02
2023-03-01T09:12:43.548Z,5.05
2023-03-01T09:15:31.157Z,5.11
2023-03-01T09:18:16.642Z,5.14
2023-03-01T09:21:08.227Z,5.22
2023-03-01T09:23:57.414Z,5.20
2023-03-01T09:26:43.304Z,5.13
2023-03-01T09:29:29.245Z,5.13
2023-03-01T09:32:15.177Z,5.14
2023-03-01T09:35:04.846Z,5.06
2023-03-01T09:37:51.456Z,5.05
2023-03-01T09:40:39.790Z,5.02
2023-03-01T09:44:07.530Z,5.26
2023-03-01T09:46:53.392Z,5.35
2023-03-01T09:49:42.773Z,5.32
2023-03-01T09:52:46.060Z,5.32
2023-03-01T09:55:36.546Z,5.51
2023-03-01T09:58:44.188Z,5.56
2023-03-01T10:01:37.103Z,5.73
2023-03-01T10:04:43.085Z,5.74
2023-03-01T10:07:41.161Z,5.82
2023-03-01T10:10:37.545Z,5.97
2023-03-01T10:14:06.264Z,5.98
2023-03-01T10:17:26.005Z,6.31
2023-03-01T10:20:23.611Z,6.41
2023-03-01T10:23:11.146Z,6.47
2023-03-01T10:26:24.583Z,6.36
2023-03-01T10:29:12.110Z,6.46
2023-03-01T10:31:57.285Z,6.59
2023-03-01T10:34:45.170Z,6.69
2023-03-01T10:38:10.300Z,6.64
2023-03-01T10:41:00.174Z,6.65
2023-03-01T10:43:47.652Z,6.64
2023-03-01T10:46:35.501Z,6.79
2023-03-01T10:49:26.688Z,6.65
2023-03-01T10:52:19.784Z,6.73
2023-03-01T10:55:14.368Z,6.65
2023-03-01T10:58:23.439Z,6.83
2023-03-01T11:01:18.543Z,6.85
2023-03-01T11:04:17.397Z,6.87
2023-03-01T11:07:03.536Z,6.94
2023-03-01T11:09:48.916Z,6.60
2023-03-01T11:12:35.985Z,6.84
2023-03-01T11:15:25.354Z,7.05
2023-03-01T11:18:26.608Z,6.95
2023-03-01T11:21:17.251Z,7.16
2023-03-01T11:24:04.509Z,7.16
2023-03-01T11:26:54.203Z,7.13
2023-03-01T11:29:57.547Z,7.40
2023-03-01T11:32:48.912Z,7.47
2023-03-01T11:35:39.488Z,7.45
2023-03-01T11:38:27.411Z,7.77
2023-03-01T11:41:23.046Z,8.11
2023-03-01T11:44:11.358Z,8.21
2023-03-01T11:47:09.373Z,8.28
2023-03-01T11:50:20.760Z,8.39
2023-03-01T11:53:38.652Z,8.45
2023-03-01T11:56:44.128Z,8.37
2023-03-01T11:59:38.744Z,8.58
2023-03-01T12:02:36.623Z,8.79
2023-03-01T12:05:36.331Z,8.95
2023-03-01T12:08:37.268Z,8.66
2023-03-01T12:11:58.551Z,8.90
2023-03-01T12:14:57.884Z,9.12
2023-03-01T12:18:02.115Z,9.28
2023-03-01T12:20:52.041Z,9.14
2023-03-01T12:23:43.353Z,9.50
2023-03-01T12:26:34.934Z,9.75
2023-03-01T12:29:34.134Z,9.51
2023-03-01T12:32:25.475Z,9.32
2023-03-01T12:35:11.049Z,9.14
2023-03-01T12:38:15.029Z,8.97
2023-03-01T12:41:31.325Z,9.29
2023-03-01T12:44:25.529Z,9.07
2023-03-01T12:47:42.859Z,9.05
2023-03-01T12:50:38.449Z,8.91
2023-03-01T12:53:29.714Z,8.76
2023-03-01T12:56:20.991Z,8.82
2023-03-01T12:59:32.963Z,8.64
2023-03-01T13:02:36.830Z,8.42
2023-03-01T13:05:31.509Z,8.58
2023-03-01T13:08:32.083Z,8.57
2023-03-01T13:11:20.952Z,8.75
2023-03-01T13:14:24.190Z,8.63
2023-03-01T13:17:31.029Z,8.58
2023-03-01T13:20:19.167Z,8.36
2023-03-01T13:23:08.556Z,8.33
2023-03-01T13:25:59.890Z,8.22
2023-03-01T13:28:45.135Z,8.27
2023-03-01T13:31:30.097Z,8.32
2023-03-01T13:34:41.358Z,8.15
